sensor_id;sensor_type;location;lat;lon;timestamp;temperature;humidity
68924;DHT22;55961;52.156;20.942;2022-08-04T00:01:52;21.60;63.60
68924;DHT22;55961;52.156;20.942;2022-08-04T00:09:29;21.50;63.70
68924;DHT22;55961;52.156;20.942;2022-08-04T00:11:57;21.40;63.80
68924;DHT22;55961;52.156;20.942;2022-08-04T00:14:25;21.40;63.90
68924;DHT22;55961;52.156;20.942;2022-08-04T00:16:53;21.30;63.90
68924;DHT22;55961;52.156;20.942;2022-08-04T00:19:28;21.30;63.80
68924;DHT22;55961;52.156;20.942;2022-08-04T00:21:59;21.30;64.20
68924;DHT22;55961;52.156;20.942;2022-08-04T00:24:25;21.20;64.30
68924;DHT22;55961;52.156;20.942;2022-08-04T00:26:53;21.20;64.20
68924;DHT22;55961;52.156;20.942;2022-08-04T00:29:20;21.20;64.30
68924;DHT22;55961;52.156;20.942;2022-08-04T00:31:47;21.20;64.40
68924;DHT22;55961;52.156;20.942;2022-08-04T00:34:14;21.10;64.50
68924;DHT22;55961;52.156;20.942;2022-08-04T00:36:42;21.10;64.60
68924;DHT22;55961;52.156;20.942;2022-08-04T00:39:12;21.10;64.80
68924;DHT22;55961;52.156;20.942;2022-08-04T00:50:01;21.00;64.90
68924;DHT22;55961;52.156;20.942;2022-08-04T01:01:02;20.80;65.40
68924;DHT22;55961;52.156;20.942;2022-08-04T01:06:32;20.80;65.50
68924;DHT22;55961;52.156;20.942;2022-08-04T01:16:48;20.70;65.70
68924;DHT22;55961;52.156;20.942;2022-08-04T01:29:55;20.50;66.00
68924;DHT22;55961;52.156;20.942;2022-08-04T01:35:11;20.50;66.00
68924;DHT22;55961;52.156;20.942;2022-08-04T01:37:43;20.50;66.10
68924;DHT22;55961;52.156;20.942;2022-08-04T01:40:13;20.40;65.90
68924;DHT22;55961;52.156;20.942;2022-08-04T01:42:40;20.40;66.10
68924;DHT22;55961;52.156;20.942;2022-08-04T01:45:10;20.40;66.00
68924;DHT22;55961;52.156;20.942;2022-08-04T01:47:41;20.30;66.10
68924;DHT22;55961;52.156;20.942;2022-08-04T01:50:10;20.30;66.20
68924;DHT22;55961;52.156;20.942;2022-08-04T01:52:39;20.30;66.10
68924;DHT22;55961;52.156;20.942;2022-08-04T01:55:07;20.30;66.30
68924;DHT22;55961;52.156;20.942;2022-08-04T01:57:49;20.20;66.30
68924;DHT22;55961;52.156;20.942;2022-08-04T02:00:18;20.20;66.40
68924;DHT22;55961;52.156;20.942;2022-08-04T02:02:48;20.20;66.30
68924;DHT22;55961;52.156;20.942;2022-08-04T02:05:16;20.20;66.40
68924;DHT22;55961;52.156;20.942;2022-08-04T02:13:42;20.10;66.60
68924;DHT22;55961;52.156;20.942;2022-08-04T02:16:39;20.10;66.50
68924;DHT22;55961;52.156;20.942;2022-08-04T02:21:34;20.00;66.50
68924;DHT22;55961;52.156;20.942;2022-08-04T02:24:07;20.00;66.60
68924;DHT22;55961;52.156;20.942;2022-08-04T02:26:40;20.00;66.60
68924;DHT22;55961;52.156;20.942;2022-08-04T02:29:15;19.90;66.70
68924;DHT22;55961;52.156;20.942;2022-08-04T02:37:05;19.90;66.90
68924;DHT22;55961;52.156;20.942;2022-08-04T02:39:34;19.90;67.00
68924;DHT22;55961;52.156;20.942;2022-08-04T02:42:03;19.80;67.10
68924;DHT22;55961;52.156;20.942;2022-08-04T02:44:30;19.80;67.20
68924;DHT22;55961;52.156;20.942;2022-08-04T02:46:59;19.70;67.20
68924;DHT22;55961;52.156;20.942;2022-08-04T02:49:25;19.70;67.30
68924;DHT22;55961;52.156;20.942;2022-08-04T02:51:54;19.70;67.30
68924;DHT22;55961;52.156;20.942;2022-08-04T02:54:24;19.70;67.30
68924;DHT22;55961;52.156;20.942;2022-08-04T02:56:53;19.70;67.20
68924;DHT22;55961;52.156;20.942;2022-08-04T02:59:26;19.60;67.30
68924;DHT22;55961;52.156;20.942;2022-08-04T03:01:55;19.60;67.40
68924;DHT22;55961;52.156;20.942;2022-08-04T03:07:19;19.60;67.40
68924;DHT22;55961;52.156;20.942;2022-08-04T03:37:45;19.70;67.50
68924;DHT22;55961;52.156;20.942;2022-08-04T03:40:34;19.70;67.10
68924;DHT22;55961;52.156;20.942;2022-08-04T03:46:23;19.70;67.20
68924;DHT22;55961;52.156;20.942;2022-08-04T03:52:00;19.60;67.70
68924;DHT22;55961;52.156;20.942;2022-08-04T03:55:54;19.60;67.80
68924;DHT22;55961;52.156;20.942;2022-08-04T04:00:18;19.60;68.10
68924;DHT22;55961;52.156;20.942;2022-08-04T04:03:08;19.60;68.00
68924;DHT22;55961;52.156;20.942;2022-08-04T04:05:54;19.60;68.30
68924;DHT22;55961;52.156;20.942;2022-08-04T04:20:08;19.60;67.70
68924;DHT22;55961;52.156;20.942;2022-08-04T04:31:21;19.60;67.00
68924;DHT22;55961;52.156;20.942;2022-08-04T04:52:56;19.90;66.70
68924;DHT22;55961;52.156;20.942;2022-08-04T04:55:59;20.00;66.80
68924;DHT22;55961;52.156;20.942;2022-08-04T04:58:30;20.10;66.50
68924;DHT22;55961;52.156;20.942;2022-08-04T05:06:49;20.30;66.00
68924;DHT22;55961;52.156;20.942;2022-08-04T05:09:49;20.40;65.80
68924;DHT22;55961;52.156;20.942;2022-08-04T05:14:59;20.50;65.60
68924;DHT22;55961;52.156;20.942;2022-08-04T05:17:41;20.60;65.40
68924;DHT22;55961;52.156;20.942;2022-08-04T05:20:15;20.70;65.00
68924;DHT22;55961;52.156;20.942;2022-08-04T05:22:58;20.80;64.70
68924;DHT22;55961;52.156;20.942;2022-08-04T05:25:36;20.90;64.70
68924;DHT22;55961;52.156;20.942;2022-08-04T05:28:17;21.00;64.70
68924;DHT22;55961;52.156;20.942;2022-08-04T05:30:48;21.10;64.30
68924;DHT22;55961;52.156;20.942;2022-08-04T05:33:24;21.20;63.70
68924;DHT22;55961;52.156;20.942;2022-08-04T05:35:57;21.30;63.50
68924;DHT22;55961;52.156;20.942;2022-08-04T05:38:26;21.40;63.50
68924;DHT22;55961;52.156;20.942;2022-08-04T05:40:54;21.50;63.00
68924;DHT22;55961;52.156;20.942;2022-08-04T05:43:22;21.60;62.80
68924;DHT22;55961;52.156;20.942;2022-08-04T05:45:50;21.80;62.90
68924;DHT22;55961;52.156;20.942;2022-08-04T05:48:16;21.90;62.50
68924;DHT22;55961;52.156;20.942;2022-08-04T05:50:44;22.00;61.50
68924;DHT22;55961;52.156;20.942;2022-08-04T05:53:12;22.10;60.90
68924;DHT22;55961;52.156;20.942;2022-08-04T05:55:38;22.30;60.90
68924;DHT22;55961;52.156;20.942;2022-08-04T05:58:05;22.40;60.20
68924;DHT22;55961;52.156;20.942;2022-08-04T06:00:32;22.50;60.20
68924;DHT22;55961;52.156;20.942;2022-08-04T06:03:00;22.60;60.00
68924;DHT22;55961;52.156;20.942;2022-08-04T06:05:27;22.70;59.60
68924;DHT22;55961;52.156;20.942;2022-08-04T06:07:53;22.90;59.00
68924;DHT22;55961;52.156;20.942;2022-08-04T06:10:19;23.00;58.40
68924;DHT22;55961;52.156;20.942;2022-08-04T06:12:51;23.10;58.40
68924;DHT22;55961;52.156;20.942;2022-08-04T06:15:19;23.10;58.40
68924;DHT22;55961;52.156;20.942;2022-08-04T06:17:48;23.20;58.60
68924;DHT22;55961;52.156;20.942;2022-08-04T06:20:16;23.30;58.20
68924;DHT22;55961;52.156;20.942;2022-08-04T06:22:45;23.40;57.70
68924;DHT22;55961;52.156;20.942;2022-08-04T06:25:16;23.50;57.60
68924;DHT22;55961;52.156;20.942;2022-08-04T06:27:43;23.60;57.60
68924;DHT22;55961;52.156;20.942;2022-08-04T06:30:10;23.60;57.10
68924;DHT22;55961;52.156;20.942;2022-08-04T06:32:43;23.70;57.20
68924;DHT22;55961;52.156;20.942;2022-08-04T06:35:17;23.80;56.40
68924;DHT22;55961;52.156;20.942;2022-08-04T06:37:44;23.90;56.80
68924;DHT22;55961;52.156;20.942;2022-08-04T06:40:16;24.10;56.50
68924;DHT22;55961;52.156;20.942;2022-08-04T06:42:43;24.20;56.00
68924;DHT22;55961;52.156;20.942;2022-08-04T06:45:11;24.30;55.40
68924;DHT22;55961;52.156;20.942;2022-08-04T06:47:39;24.40;55.70
68924;DHT22;55961;52.156;20.942;2022-08-04T06:50:07;24.60;55.50
68924;DHT22;55961;52.156;20.942;2022-08-04T06:52:34;24.70;55.30
68924;DHT22;55961;52.156;20.942;2022-08-04T06:55:00;24.80;55.10
68924;DHT22;55961;52.156;20.942;2022-08-04T06:57:27;24.90;55.30
68924;DHT22;55961;52.156;20.942;2022-08-04T07:00:08;25.00;55.80
68924;DHT22;55961;52.156;20.942;2022-08-04T07:02:47;25.20;55.00
68924;DHT22;55961;52.156;20.942;2022-08-04T07:05:13;25.30;54.60
68924;DHT22;55961;52.156;20.942;2022-08-04T07:07:41;25.40;54.10
68924;DHT22;55961;52.156;20.942;2022-08-04T07:10:07;25.60;53.60
68924;DHT22;55961;52.156;20.942;2022-08-04T07:12:33;25.70;52.90
68924;DHT22;55961;52.156;20.942;2022-08-04T07:15:00;25.90;52.60
68924;DHT22;55961;52.156;20.942;2022-08-04T07:17:27;26.00;52.40
68924;DHT22;55961;52.156;20.942;2022-08-04T07:19:54;26.10;52.20
68924;DHT22;55961;52.156;20.942;2022-08-04T07:22:21;26.30;52.10
68924;DHT22;55961;52.156;20.942;2022-08-04T07:24:47;26.40;51.80
68924;DHT22;55961;52.156;20.942;2022-08-04T07:27:16;26.50;52.00
68924;DHT22;55961;52.156;20.942;2022-08-04T07:29:42;26.60;50.70
68924;DHT22;55961;52.156;20.942;2022-08-04T07:32:08;26.70;50.40
68924;DHT22;55961;52.156;20.942;2022-08-04T07:34:36;26.80;50.40
68924;DHT22;55961;52.156;20.942;2022-08-04T07:37:03;27.00;49.30
68924;DHT22;55961;52.156;20.942;2022-08-04T07:39:29;27.10;48.80
68924;DHT22;55961;52.156;20.942;2022-08-04T07:42:02;27.20;48.40
68924;DHT22;55961;52.156;20.942;2022-08-04T07:44:30;27.30;47.30
68924;DHT22;55961;52.156;20.942;2022-08-04T07:46:56;27.40;46.40
68924;DHT22;55961;52.156;20.942;2022-08-04T07:49:22;27.50;46.40
68924;DHT22;55961;52.156;20.942;2022-08-04T07:51:52;27.50;46.80
68924;DHT22;55961;52.156;20.942;2022-08-04T07:54:19;27.60;47.50
68924;DHT22;55961;52.156;20.942;2022-08-04T07:56:45;27.70;45.50
68924;DHT22;55961;52.156;20.942;2022-08-04T07:59:14;27.80;46.40
68924;DHT22;55961;52.156;20.942;2022-08-04T08:01:41;27.90;45.20
68924;DHT22;55961;52.156;20.942;2022-08-04T08:04:08;28.00;45.30
68924;DHT22;55961;52.156;20.942;2022-08-04T08:06:36;28.20;45.00
68924;DHT22;55961;52.156;20.942;2022-08-04T08:09:14;28.30;45.20
68924;DHT22;55961;52.156;20.942;2022-08-04T08:11:45;28.50;43.70
68924;DHT22;55961;52.156;20.942;2022-08-04T08:14:12;28.60;43.60
68924;DHT22;55961;52.156;20.942;2022-08-04T08:16:38;28.70;43.70
68924;DHT22;55961;52.156;20.942;2022-08-04T08:19:04;28.80;42.80
68924;DHT22;55961;52.156;20.942;2022-08-04T08:21:30;28.90;42.70
68924;DHT22;55961;52.156;20.942;2022-08-04T08:23:57;29.00;43.30
68924;DHT22;55961;52.156;20.942;2022-08-04T08:26:23;29.10;42.00
68924;DHT22;55961;52.156;20.942;2022-08-04T08:28:49;29.10;42.20
68924;DHT22;55961;52.156;20.942;2022-08-04T08:31:15;29.20;41.60
68924;DHT22;55961;52.156;20.942;2022-08-04T08:33:42;29.30;42.10
68924;DHT22;55961;52.156;20.942;2022-08-04T08:38:52;29.50;42.50
68924;DHT22;55961;52.156;20.942;2022-08-04T08:58:11;30.20;38.50
68924;DHT22;55961;52.156;20.942;2022-08-04T09:01:06;30.20;38.70
68924;DHT22;55961;52.156;20.942;2022-08-04T09:12:06;30.60;40.20
68924;DHT22;55961;52.156;20.942;2022-08-04T09:15:00;30.80;40.10
68924;DHT22;55961;52.156;20.942;2022-08-04T09:20:15;31.20;39.30
68924;DHT22;55961;52.156;20.942;2022-08-04T09:23:02;31.30;38.90
68924;DHT22;55961;52.156;20.942;2022-08-04T09:25:38;31.40;38.80
68924;DHT22;55961;52.156;20.942;2022-08-04T09:28:37;31.50;38.20
68924;DHT22;55961;52.156;20.942;2022-08-04T09:31:21;31.60;38.00
68924;DHT22;55961;52.156;20.942;2022-08-04T09:34:17;31.60;38.00
68924;DHT22;55961;52.156;20.942;2022-08-04T09:37:07;31.70;37.80
68924;DHT22;55961;52.156;20.942;2022-08-04T09:40:17;31.80;38.10
68924;DHT22;55961;52.156;20.942;2022-08-04T09:48:43;32.20;37.30
68924;DHT22;55961;52.156;20.942;2022-08-04T09:54:15;32.10;37.70
68924;DHT22;55961;52.156;20.942;2022-08-04T09:59:57;32.10;37.70
68924;DHT22;55961;52.156;20.942;2022-08-04T10:02:27;32.10;37.90
68924;DHT22;55961;52.156;20.942;2022-08-04T10:04:55;32.10;37.70
68924;DHT22;55961;52.156;20.942;2022-08-04T10:07:44;32.10;37.90
68924;DHT22;55961;52.156;20.942;2022-08-04T10:13:34;32.30;38.00
68924;DHT22;55961;52.156;20.942;2022-08-04T10:18:47;32.40;37.30
68924;DHT22;55961;52.156;20.942;2022-08-04T10:21:49;32.40;38.20
68924;DHT22;55961;52.156;20.942;2022-08-04T10:24:32;32.60;37.50
68924;DHT22;55961;52.156;20.942;2022-08-04T10:29:51;33.00;37.00
68924;DHT22;55961;52.156;20.942;2022-08-04T10:32:27;33.20;37.30
68924;DHT22;55961;52.156;20.942;2022-08-04T10:37:43;33.30;36.60
68924;DHT22;55961;52.156;20.942;2022-08-04T10:40:21;33.40;36.20
68924;DHT22;55961;52.156;20.942;2022-08-04T10:46:15;33.20;36.10
68924;DHT22;55961;52.156;20.942;2022-08-04T10:49:01;33.20;36.80
68924;DHT22;55961;52.156;20.942;2022-08-04T10:51:44;33.30;36.50
68924;DHT22;55961;52.156;20.942;2022-08-04T10:54:20;33.40;36.20
68924;DHT22;55961;52.156;20.942;2022-08-04T10:56:55;33.50;35.80
68924;DHT22;55961;52.156;20.942;2022-08-04T10:59:52;33.50;35.70
68924;DHT22;55961;52.156;20.942;2022-08-04T11:03:15;33.50;35.50
68924;DHT22;55961;52.156;20.942;2022-08-04T11:08:28;33.60;35.50
68924;DHT22;55961;52.156;20.942;2022-08-04T11:13:33;33.60;35.70
68924;DHT22;55961;52.156;20.942;2022-08-04T11:16:05;33.60;35.60
68924;DHT22;55961;52.156;20.942;2022-08-04T11:21:42;33.50;35.30
68924;DHT22;55961;52.156;20.942;2022-08-04T11:24:45;33.50;36.20
68924;DHT22;55961;52.156;20.942;2022-08-04T11:27:19;33.70;35.80
68924;DHT22;55961;52.156;20.942;2022-08-04T11:30:08;33.90;35.90
68924;DHT22;55961;52.156;20.942;2022-08-04T11:35:42;34.20;35.70
68924;DHT22;55961;52.156;20.942;2022-08-04T11:38:24;34.40;35.00
68924;DHT22;55961;52.156;20.942;2022-08-04T11:41:09;34.60;34.50
68924;DHT22;55961;52.156;20.942;2022-08-04T11:43:52;34.70;34.00
68924;DHT22;55961;52.156;20.942;2022-08-04T11:46:25;34.80;33.40
68924;DHT22;55961;52.156;20.942;2022-08-04T11:51:47;34.90;33.50
68924;DHT22;55961;52.156;20.942;2022-08-04T11:54:16;34.80;33.70
68924;DHT22;55961;52.156;20.942;2022-08-04T11:56:43;34.90;34.10
68924;DHT22;55961;52.156;20.942;2022-08-04T11:59:09;34.90;33.90
68924;DHT22;55961;52.156;20.942;2022-08-04T12:04:34;35.00;33.70
68924;DHT22;55961;52.156;20.942;2022-08-04T12:10:03;34.90;33.80
68924;DHT22;55961;52.156;20.942;2022-08-04T12:12:38;34.80;34.30
68924;DHT22;55961;52.156;20.942;2022-08-04T12:18:06;34.80;33.40
68924;DHT22;55961;52.156;20.942;2022-08-04T12:20:40;34.90;33.30
68924;DHT22;55961;52.156;20.942;2022-08-04T12:23:40;35.10;32.60
68924;DHT22;55961;52.156;20.942;2022-08-04T12:26:13;35.30;32.70
68924;DHT22;55961;52.156;20.942;2022-08-04T12:28:42;35.40;33.90
68924;DHT22;55961;52.156;20.942;2022-08-04T12:31:46;35.50;33.70
68924;DHT22;55961;52.156;20.942;2022-08-04T12:34:34;35.60;32.90
68924;DHT22;55961;52.156;20.942;2022-08-04T12:37:05;35.50;32.80
68924;DHT22;55961;52.156;20.942;2022-08-04T12:39:35;35.40;32.80
68924;DHT22;55961;52.156;20.942;2022-08-04T12:44:39;35.40;33.00
68924;DHT22;55961;52.156;20.942;2022-08-04T12:47:08;35.40;32.90
68924;DHT22;55961;52.156;20.942;2022-08-04T12:49:37;35.60;33.10
68924;DHT22;55961;52.156;20.942;2022-08-04T12:52:05;35.70;33.50
68924;DHT22;55961;52.156;20.942;2022-08-04T12:54:32;35.80;32.30
68924;DHT22;55961;52.156;20.942;2022-08-04T12:57:01;35.90;31.80
68924;DHT22;55961;52.156;20.942;2022-08-04T12:59:29;36.00;31.80
68924;DHT22;55961;52.156;20.942;2022-08-04T13:01:55;36.00;32.00
68924;DHT22;55961;52.156;20.942;2022-08-04T13:04:24;36.00;32.10
68924;DHT22;55961;52.156;20.942;2022-08-04T13:07:04;36.10;30.80
68924;DHT22;55961;52.156;20.942;2022-08-04T13:09:33;36.00;31.00
68924;DHT22;55961;52.156;20.942;2022-08-04T13:12:14;36.00;31.20
68924;DHT22;55961;52.156;20.942;2022-08-04T13:14:42;36.00;30.90
68924;DHT22;55961;52.156;20.942;2022-08-04T13:17:12;35.90;30.90
68924;DHT22;55961;52.156;20.942;2022-08-04T13:19:38;35.90;31.20
68924;DHT22;55961;52.156;20.942;2022-08-04T13:22:11;35.80;31.60
68924;DHT22;55961;52.156;20.942;2022-08-04T13:24:41;35.80;31.30
68924;DHT22;55961;52.156;20.942;2022-08-04T13:27:09;35.80;31.90
68924;DHT22;55961;52.156;20.942;2022-08-04T13:29:40;35.80;30.80
68924;DHT22;55961;52.156;20.942;2022-08-04T13:32:09;35.90;31.90
68924;DHT22;55961;52.156;20.942;2022-08-04T13:34:35;36.00;31.30
68924;DHT22;55961;52.156;20.942;2022-08-04T13:37:05;36.10;31.20
68924;DHT22;55961;52.156;20.942;2022-08-04T13:39:33;36.30;31.70
68924;DHT22;55961;52.156;20.942;2022-08-04T13:42:08;36.30;31.00
68924;DHT22;55961;52.156;20.942;2022-08-04T13:44:36;36.30;30.80
68924;DHT22;55961;52.156;20.942;2022-08-04T13:47:20;36.20;30.70
68924;DHT22;55961;52.156;20.942;2022-08-04T13:50:15;36.20;30.80
68924;DHT22;55961;52.156;20.942;2022-08-04T13:52:42;36.20;31.70
68924;DHT22;55961;52.156;20.942;2022-08-04T13:55:24;36.30;31.50
68924;DHT22;55961;52.156;20.942;2022-08-04T14:00:52;36.50;30.20
68924;DHT22;55961;52.156;20.942;2022-08-04T14:03:32;36.40;30.60
68924;DHT22;55961;52.156;20.942;2022-08-04T14:06:14;36.40;31.10
68924;DHT22;55961;52.156;20.942;2022-08-04T14:09:12;36.50;30.40
68924;DHT22;55961;52.156;20.942;2022-08-04T14:11:42;36.50;30.40
68924;DHT22;55961;52.156;20.942;2022-08-04T14:14:43;36.50;29.80
68924;DHT22;55961;52.156;20.942;2022-08-04T14:17:14;36.50;30.40
68924;DHT22;55961;52.156;20.942;2022-08-04T14:19:59;36.50;30.40
68924;DHT22;55961;52.156;20.942;2022-08-04T14:25:06;36.50;29.80
68924;DHT22;55961;52.156;20.942;2022-08-04T14:30:07;36.40;30.20
68924;DHT22;55961;52.156;20.942;2022-08-04T14:33:02;36.40;30.20
68924;DHT22;55961;52.156;20.942;2022-08-04T14:35:28;36.40;29.90
68924;DHT22;55961;52.156;20.942;2022-08-04T14:38:17;36.30;29.50
68924;DHT22;55961;52.156;20.942;2022-08-04T14:40:43;36.20;29.60
68924;DHT22;55961;52.156;20.942;2022-08-04T14:43:10;36.10;29.80
68924;DHT22;55961;52.156;20.942;2022-08-04T14:45:42;36.00;29.70
68924;DHT22;55961;52.156;20.942;2022-08-04T14:48:13;35.90;30.10
68924;DHT22;55961;52.156;20.942;2022-08-04T14:50:41;35.90;30.10
68924;DHT22;55961;52.156;20.942;2022-08-04T14:53:18;36.00;30.20
68924;DHT22;55961;52.156;20.942;2022-08-04T14:55:47;35.90;30.00
68924;DHT22;55961;52.156;20.942;2022-08-04T14:58:28;35.90;30.30
68924;DHT22;55961;52.156;20.942;2022-08-04T15:01:00;36.00;31.00
68924;DHT22;55961;52.156;20.942;2022-08-04T15:03:30;36.10;30.40
68924;DHT22;55961;52.156;20.942;2022-08-04T15:05:58;36.10;30.00
68924;DHT22;55961;52.156;20.942;2022-08-04T15:08:26;36.20;30.00
68924;DHT22;55961;52.156;20.942;2022-08-04T15:10:57;36.30;30.90
68924;DHT22;55961;52.156;20.942;2022-08-04T15:13:24;36.30;29.70
68924;DHT22;55961;52.156;20.942;2022-08-04T15:15:59;36.20;30.00
68924;DHT22;55961;52.156;20.942;2022-08-04T15:18:27;36.10;29.90
68924;DHT22;55961;52.156;20.942;2022-08-04T15:20:56;36.10;29.90
68924;DHT22;55961;52.156;20.942;2022-08-04T15:23:23;36.00;29.70
68924;DHT22;55961;52.156;20.942;2022-08-04T15:25:52;36.00;29.90
68924;DHT22;55961;52.156;20.942;2022-08-04T15:28:21;35.90;30.10
68924;DHT22;55961;52.156;20.942;2022-08-04T15:30:53;35.80;30.10
68924;DHT22;55961;52.156;20.942;2022-08-04T15:33:22;35.80;30.20
68924;DHT22;55961;52.156;20.942;2022-08-04T15:36:09;35.70;30.30
68924;DHT22;55961;52.156;20.942;2022-08-04T15:38:39;35.60;30.40
68924;DHT22;55961;52.156;20.942;2022-08-04T15:41:15;35.50;30.60
68924;DHT22;55961;52.156;20.942;2022-08-04T15:43:54;35.40;30.90
68924;DHT22;55961;52.156;20.942;2022-08-04T15:49:23;35.40;30.90
68924;DHT22;55961;52.156;20.942;2022-08-04T15:52:05;35.40;30.50
68924;DHT22;55961;52.156;20.942;2022-08-04T15:54:31;35.40;30.70
68924;DHT22;55961;52.156;20.942;2022-08-04T15:56:58;35.40;30.40
68924;DHT22;55961;52.156;20.942;2022-08-04T16:08:09;35.10;31.10
68924;DHT22;55961;52.156;20.942;2022-08-04T16:10:36;35.00;30.70
68924;DHT22;55961;52.156;20.942;2022-08-04T16:13:11;34.90;30.80
68924;DHT22;55961;52.156;20.942;2022-08-04T16:18:08;34.60;31.10
68924;DHT22;55961;52.156;20.942;2022-08-04T16:20:36;34.50;31.40
68924;DHT22;55961;52.156;20.942;2022-08-04T16:25:53;34.40;31.80
68924;DHT22;55961;52.156;20.942;2022-08-04T16:28:38;34.40;31.40
68924;DHT22;55961;52.156;20.942;2022-08-04T16:31:09;34.40;31.60
68924;DHT22;55961;52.156;20.942;2022-08-04T16:33:36;34.30;31.80
68924;DHT22;55961;52.156;20.942;2022-08-04T16:36:06;34.30;31.40
68924;DHT22;55961;52.156;20.942;2022-08-04T16:38:59;34.30;31.80
68924;DHT22;55961;52.156;20.942;2022-08-04T16:41:55;34.20;31.90
68924;DHT22;55961;52.156;20.942;2022-08-04T16:44:35;34.10;32.30
68924;DHT22;55961;52.156;20.942;2022-08-04T16:47:03;34.10;32.20
68924;DHT22;55961;52.156;20.942;2022-08-04T16:49:31;34.00;32.50
68924;DHT22;55961;52.156;20.942;2022-08-04T16:52:04;34.00;32.20
68924;DHT22;55961;52.156;20.942;2022-08-04T16:54:31;33.90;32.50
68924;DHT22;55961;52.156;20.942;2022-08-04T16:56:58;33.90;32.00
68924;DHT22;55961;52.156;20.942;2022-08-04T16:59:25;33.80;32.60
68924;DHT22;55961;52.156;20.942;2022-08-04T17:01:52;33.70;32.60
68924;DHT22;55961;52.156;20.942;2022-08-04T17:04:30;33.70;32.70
68924;DHT22;55961;52.156;20.942;2022-08-04T17:07:00;33.50;33.20
68924;DHT22;55961;52.156;20.942;2022-08-04T17:09:27;33.50;33.60
68924;DHT22;55961;52.156;20.942;2022-08-04T17:11:53;33.40;33.60
68924;DHT22;55961;52.156;20.942;2022-08-04T17:14:21;33.30;34.00
68924;DHT22;55961;52.156;20.942;2022-08-04T17:16:48;33.30;34.30
68924;DHT22;55961;52.156;20.942;2022-08-04T17:19:14;33.20;34.70
68924;DHT22;55961;52.156;20.942;2022-08-04T17:21:42;33.10;34.90
68924;DHT22;55961;52.156;20.942;2022-08-04T17:24:08;33.10;34.90
68924;DHT22;55961;52.156;20.942;2022-08-04T17:26:36;33.00;35.20
68924;DHT22;55961;52.156;20.942;2022-08-04T17:29:03;32.90;35.30
68924;DHT22;55961;52.156;20.942;2022-08-04T17:31:31;32.80;35.50
68924;DHT22;55961;52.156;20.942;2022-08-04T17:33:59;32.70;35.60
68924;DHT22;55961;52.156;20.942;2022-08-04T17:36:28;32.60;35.90
68924;DHT22;55961;52.156;20.942;2022-08-04T17:38:58;32.50;36.20
68924;DHT22;55961;52.156;20.942;2022-08-04T17:41:26;32.40;36.30
68924;DHT22;55961;52.156;20.942;2022-08-04T17:43:58;32.30;36.50
68924;DHT22;55961;52.156;20.942;2022-08-04T17:46:39;32.20;36.50
68924;DHT22;55961;52.156;20.942;2022-08-04T17:54:08;31.90;37.20
68924;DHT22;55961;52.156;20.942;2022-08-04T17:56:35;31.80;37.60
68924;DHT22;55961;52.156;20.942;2022-08-04T17:59:16;31.70;37.50
68924;DHT22;55961;52.156;20.942;2022-08-04T18:06:54;31.40;38.20
68924;DHT22;55961;52.156;20.942;2022-08-04T18:09:27;31.20;38.50
68924;DHT22;55961;52.156;20.942;2022-08-04T18:12:10;31.10;38.50
68924;DHT22;55961;52.156;20.942;2022-08-04T18:14:39;31.00;38.80
68924;DHT22;55961;52.156;20.942;2022-08-04T18:17:06;30.90;39.10
68924;DHT22;55961;52.156;20.942;2022-08-04T18:19:32;30.70;40.10
68924;DHT22;55961;52.156;20.942;2022-08-04T18:21:58;30.60;40.50
68924;DHT22;55961;52.156;20.942;2022-08-04T18:24:24;30.50;40.50
68924;DHT22;55961;52.156;20.942;2022-08-04T18:26:51;30.40;40.80
68924;DHT22;55961;52.156;20.942;2022-08-04T18:29:17;30.30;41.40
68924;DHT22;55961;52.156;20.942;2022-08-04T18:31:43;30.20;41.80
68924;DHT22;55961;52.156;20.942;2022-08-04T18:34:09;30.00;42.10
68924;DHT22;55961;52.156;20.942;2022-08-04T18:36:35;29.90;42.40
68924;DHT22;55961;52.156;20.942;2022-08-04T18:39:04;29.80;42.50
68924;DHT22;55961;52.156;20.942;2022-08-04T18:41:30;29.70;42.50
68924;DHT22;55961;52.156;20.942;2022-08-04T18:43:56;29.60;42.60
68924;DHT22;55961;52.156;20.942;2022-08-04T18:46:25;29.50;42.80
68924;DHT22;55961;52.156;20.942;2022-08-04T18:48:51;29.40;43.40
68924;DHT22;55961;52.156;20.942;2022-08-04T18:51:17;29.20;43.30
68924;DHT22;55961;52.156;20.942;2022-08-04T18:53:44;29.10;43.40
68924;DHT22;55961;52.156;20.942;2022-08-04T18:56:11;29.00;43.70
68924;DHT22;55961;52.156;20.942;2022-08-04T18:58:39;28.90;43.00
68924;DHT22;55961;52.156;20.942;2022-08-04T19:01:05;28.70;42.40
68924;DHT22;55961;52.156;20.942;2022-08-04T19:03:33;28.60;42.60
68924;DHT22;55961;52.156;20.942;2022-08-04T19:06:00;28.50;42.90
68924;DHT22;55961;52.156;20.942;2022-08-04T19:08:28;28.40;42.40
68924;DHT22;55961;52.156;20.942;2022-08-04T19:10:54;28.40;42.40
68924;DHT22;55961;52.156;20.942;2022-08-04T19:13:20;28.30;42.50
68924;DHT22;55961;52.156;20.942;2022-08-04T19:15:46;28.20;42.90
68924;DHT22;55961;52.156;20.942;2022-08-04T19:18:12;28.10;43.40
68924;DHT22;55961;52.156;20.942;2022-08-04T19:20:37;28.00;43.60
68924;DHT22;55961;52.156;20.942;2022-08-04T19:23:03;27.90;43.70
68924;DHT22;55961;52.156;20.942;2022-08-04T19:25:29;27.90;43.80
68924;DHT22;55961;52.156;20.942;2022-08-04T19:27:55;27.80;43.80
68924;DHT22;55961;52.156;20.942;2022-08-04T19:30:21;27.70;44.00
68924;DHT22;55961;52.156;20.942;2022-08-04T19:32:47;27.70;44.30
68924;DHT22;55961;52.156;20.942;2022-08-04T19:35:13;27.60;44.60
68924;DHT22;55961;52.156;20.942;2022-08-04T19:37:39;27.50;44.90
68924;DHT22;55961;52.156;20.942;2022-08-04T19:40:07;27.40;45.10
68924;DHT22;55961;52.156;20.942;2022-08-04T19:42:32;27.30;45.50
68924;DHT22;55961;52.156;20.942;2022-08-04T19:44:59;27.20;45.70
68924;DHT22;55961;52.156;20.942;2022-08-04T19:47:25;27.20;45.90
68924;DHT22;55961;52.156;20.942;2022-08-04T19:49:51;27.10;46.10
68924;DHT22;55961;52.156;20.942;2022-08-04T19:52:18;27.00;46.40
68924;DHT22;55961;52.156;20.942;2022-08-04T19:54:44;26.80;47.20
68924;DHT22;55961;52.156;20.942;2022-08-04T19:57:10;26.70;47.30
68924;DHT22;55961;52.156;20.942;2022-08-04T19:59:36;26.70;47.40
68924;DHT22;55961;52.156;20.942;2022-08-04T20:02:02;26.60;47.70
68924;DHT22;55961;52.156;20.942;2022-08-04T20:04:28;26.50;48.00
68924;DHT22;55961;52.156;20.942;2022-08-04T20:06:53;26.40;48.20
68924;DHT22;55961;52.156;20.942;2022-08-04T20:09:20;26.30;48.40
68924;DHT22;55961;52.156;20.942;2022-08-04T20:11:45;26.20;48.70